sensor_id;sensor_type;location;lat;lon;timestamp;pressure;altitude;pressure_sealevel;temperature;humidity
52745;BME280;38637;49.984;20.426;2024-02-15T00:02:23;99870.69;;;7.68;62.51
52745;BME280;38637;49.984;20.426;2024-02-15T00:04:48;99873.97;;;7.58;62.89
52745;BME280;38637;49.984;20.426;2024-02-15T00:07:13;99866.28;;;7.55;63.31
52745;BME280;38637;49.984;20.426;2024-02-15T00:09:39;99876.75;;;7.70;63.60
52745;BME280;38637;49.984;20.426;2024-02-15T00:12:04;99888.34;;;7.77;63.69
52745;BME280;38637;49.984;20.426;2024-02-15T00:14:30;99861.72;;;7.68;64.16
52745;BME280;38637;49.984;20.426;2024-02-15T00:16:56;99880.66;;;7.74;64.50
52745;BME280;38637;49.984;20.426;2024-02-15T00:19:22;99875.16;;;7.81;64.51
52745;BME280;38637;49.984;20.426;2024-02-15T00:21:48;99871.22;;;7.77;64.64
52745;BME280;38637;49.984;20.426;2024-02-15T00:24:13;99884.28;;;7.87;64.31
52745;BME280;38637;49.984;20.426;2024-02-15T00:26:40;99853.09;;;7.71;64.55
52745;BME280;38637;49.984;20.426;2024-02-15T00:29:05;99852.59;;;7.62;64.40
52745;BME280;38637;49.984;20.426;2024-02-15T00:31:30;99833.91;;;7.54;64.42
52745;BME280;38637;49.984;20.426;2024-02-15T00:33:55;99867.16;;;7.68;63.74
52745;BME280;38637;49.984;20.426;2024-02-15T00:36:21;99868.59;;;7.70;64.42
52745;BME280;38637;49.984;20.426;2024-02-15T00:38:46;99883.53;;;7.79;64.48
52745;BME280;38637;49.984;20.426;2024-02-15T00:41:11;99855.31;;;7.62;64.80
52745;BME280;38637;49.984;20.426;2024-02-15T00:43:37;99882.00;;;7.83;64.58
52745;BME280;38637;49.984;20.426;2024-02-15T00:46:02;99877.88;;;7.81;65.38
52745;BME280;38637;49.984;20.426;2024-02-15T00:48:28;99875.50;;;7.85;65.38
52745;BME280;38637;49.984;20.426;2024-02-15T00:50:55;99880.69;;;7.86;65.64
52745;BME280;38637;49.984;20.426;2024-02-15T00:53:20;99800.13;;;7.31;67.09
52745;BME280;38637;49.984;20.426;2024-02-15T00:55:46;99824.34;;;7.51;66.65
52745;BME280;38637;49.984;20.426;2024-02-15T00:58:11;99876.81;;;7.82;66.75
52745;BME280;38637;49.984;20.426;2024-02-15T01:00:36;99865.19;;;7.75;66.91
52745;BME280;38637;49.984;20.426;2024-02-15T01:03:03;99863.16;;;7.70;67.31
52745;BME280;38637;49.984;20.426;2024-02-15T01:05:28;99855.25;;;7.69;67.38
52745;BME280;38637;49.984;20.426;2024-02-15T01:07:55;99842.06;;;7.54;67.48
52745;BME280;38637;49.984;20.426;2024-02-15T01:10:21;99859.72;;;7.63;67.86
52745;BME280;38637;49.984;20.426;2024-02-15T01:12:47;99855.50;;;7.49;67.84
52745;BME280;38637;49.984;20.426;2024-02-15T01:15:14;99871.97;;;7.54;68.11
52745;BME280;38637;49.984;20.426;2024-02-15T01:17:41;99867.91;;;7.45;67.93
52745;BME280;38637;49.984;20.426;2024-02-15T01:20:06;99868.47;;;7.47;67.93
52745;BME280;38637;49.984;20.426;2024-02-15T01:22:32;99848.44;;;7.29;67.91
52745;BME280;38637;49.984;20.426;2024-02-15T01:24:57;99876.88;;;7.45;67.34
52745;BME280;38637;49.984;20.426;2024-02-15T01:27:23;99875.44;;;7.43;67.01
52745;BME280;38637;49.984;20.426;2024-02-15T01:29:48;99874.16;;;7.45;67.48
52745;BME280;38637;49.984;20.426;2024-02-15T01:32:13;99863.00;;;7.35;67.37
52745;BME280;38637;49.984;20.426;2024-02-15T01:34:40;99873.44;;;7.38;67.32
52745;BME280;38637;49.984;20.426;2024-02-15T01:37:05;99882.41;;;7.39;67.20
52745;BME280;38637;49.984;20.426;2024-02-15T01:39:30;99877.44;;;7.35;67.24
52745;BME280;38637;49.984;20.426;2024-02-15T01:41:56;99852.84;;;7.12;67.51
52745;BME280;38637;49.984;20.426;2024-02-15T01:44:22;99869.81;;;7.26;67.57
52745;BME280;38637;49.984;20.426;2024-02-15T01:46:50;99859.00;;;7.19;67.45
52745;BME280;38637;49.984;20.426;2024-02-15T01:49:17;99866.66;;;7.29;67.44
52745;BME280;38637;49.984;20.426;2024-02-15T01:51:43;99855.56;;;7.12;68.19
52745;BME280;38637;49.984;20.426;2024-02-15T01:54:11;99843.94;;;7.05;68.14
52745;BME280;38637;49.984;20.426;2024-02-15T01:56:38;99877.88;;;7.32;67.96
52745;BME280;38637;49.984;20.426;2024-02-15T01:59:04;99868.66;;;7.33;68.19
52745;BME280;38637;49.984;20.426;2024-02-15T02:01:30;99881.94;;;7.42;68.31
52745;BME280;38637;49.984;20.426;2024-02-15T02:04:00;99877.09;;;7.44;68.58
52745;BME280;38637;49.984;20.426;2024-02-15T02:06:25;99872.34;;;7.39;68.67
52745;BME280;38637;49.984;20.426;2024-02-15T02:08:51;99855.31;;;7.32;68.83
52745;BME280;38637;49.984;20.426;2024-02-15T02:11:16;99878.53;;;7.46;68.90
52745;BME280;38637;49.984;20.426;2024-02-15T02:13:41;99866.09;;;7.39;68.92
52745;BME280;38637;49.984;20.426;2024-02-15T02:16:30;99872.13;;;7.41;68.37
52745;BME280;38637;49.984;20.426;2024-02-15T02:19:00;99850.72;;;7.32;68.46
52745;BME280;38637;49.984;20.426;2024-02-15T02:21:27;99877.25;;;7.49;68.70
52745;BME280;38637;49.984;20.426;2024-02-15T02:23:53;99876.78;;;7.52;68.70
52745;BME280;38637;49.984;20.426;2024-02-15T02:26:21;99883.66;;;7.54;68.53
52745;BME280;38637;49.984;20.426;2024-02-15T02:28:47;99871.72;;;7.55;67.97
52745;BME280;38637;49.984;20.426;2024-02-15T02:31:13;99875.88;;;7.58;68.30
52745;BME280;38637;49.984;20.426;2024-02-15T02:33:39;99876.59;;;7.65;68.21
52745;BME280;38637;49.984;20.426;2024-02-15T02:36:04;99862.13;;;7.53;68.01
52745;BME280;38637;49.984;20.426;2024-02-15T02:38:34;99871.16;;;7.65;67.78
52745;BME280;38637;49.984;20.426;2024-02-15T02:41:00;99874.94;;;7.64;67.79
52745;BME280;38637;49.984;20.426;2024-02-15T02:43:25;99879.78;;;7.62;67.98
52745;BME280;38637;49.984;20.426;2024-02-15T02:45:50;99871.63;;;7.62;67.96
52745;BME280;38637;49.984;20.426;2024-02-15T02:48:15;99849.00;;;7.50;67.88
52745;BME280;38637;49.984;20.426;2024-02-15T02:50:43;99870.13;;;7.66;68.06
52745;BME280;38637;49.984;20.426;2024-02-15T02:53:08;99880.28;;;7.71;68.54
52745;BME280;38637;49.984;20.426;2024-02-15T02:55:36;99876.13;;;7.68;68.08
52745;BME280;38637;49.984;20.426;2024-02-15T02:58:01;99841.47;;;7.52;69.07
52745;BME280;38637;49.984;20.426;2024-02-15T03:00:27;99888.97;;;7.79;69.30
52745;BME280;38637;49.984;20.426;2024-02-15T03:02:52;99826.06;;;7.46;69.46
52745;BME280;38637;49.984;20.426;2024-02-15T03:05:21;99879.50;;;7.82;69.19
52745;BME280;38637;49.984;20.426;2024-02-15T03:07:46;99882.00;;;7.83;69.50
52745;BME280;38637;49.984;20.426;2024-02-15T03:10:12;99866.47;;;7.72;69.17
52745;BME280;38637;49.984;20.426;2024-02-15T03:12:39;99834.97;;;7.53;69.35
52745;BME280;38637;49.984;20.426;2024-02-15T03:15:05;99880.50;;;7.88;69.42
52745;BME280;38637;49.984;20.426;2024-02-15T03:17:38;99890.84;;;7.79;69.50
52745;BME280;38637;49.984;20.426;2024-02-15T03:20:05;99813.88;;;7.36;69.34
52745;BME280;38637;49.984;20.426;2024-02-15T03:22:36;99895.59;;;7.83;69.54
52745;BME280;38637;49.984;20.426;2024-02-15T03:25:03;99902.69;;;7.85;69.75
52745;BME280;38637;49.984;20.426;2024-02-15T03:27:32;99905.41;;;7.85;70.25
52745;BME280;38637;49.984;20.426;2024-02-15T03:29:57;99904.34;;;7.86;70.30
52745;BME280;38637;49.984;20.426;2024-02-15T03:32:25;99902.25;;;7.88;70.30
52745;BME280;38637;49.984;20.426;2024-02-15T03:34:50;99847.41;;;7.60;70.13
52745;BME280;38637;49.984;20.426;2024-02-15T03:37:16;99892.78;;;7.90;70.09
52745;BME280;38637;49.984;20.426;2024-02-15T03:39:43;99891.72;;;7.91;70.19
52745;BME280;38637;49.984;20.426;2024-02-15T03:42:08;99819.00;;;7.45;69.83
52745;BME280;38637;49.984;20.426;2024-02-15T03:44:33;99894.91;;;7.88;69.93
52745;BME280;38637;49.984;20.426;2024-02-15T03:46:58;99896.81;;;7.88;70.06
52745;BME280;38637;49.984;20.426;2024-02-15T03:49:24;99860.06;;;7.67;70.05
52745;BME280;38637;49.984;20.426;2024-02-15T03:51:49;99859.31;;;7.78;69.82
52745;BME280;38637;49.984;20.426;2024-02-15T03:54:14;99886.19;;;7.98;70.18
52745;BME280;38637;49.984;20.426;2024-02-15T03:56:57;99883.72;;;7.96;69.96
52745;BME280;38637;49.984;20.426;2024-02-15T03:59:23;99885.34;;;7.97;69.93
52745;BME280;38637;49.984;20.426;2024-02-15T04:01:55;99846.38;;;7.73;70.10
52745;BME280;38637;49.984;20.426;2024-02-15T04:04:21;99862.94;;;7.83;69.88
52745;BME280;38637;49.984;20.426;2024-02-15T04:06:50;99882.19;;;8.00;69.84
52745;BME280;38637;49.984;20.426;2024-02-15T04:09:16;99869.28;;;7.96;69.93
52745;BME280;38637;49.984;20.426;2024-02-15T04:11:46;99876.53;;;8.02;69.91
52745;BME280;38637;49.984;20.426;2024-02-15T04:14:15;99880.28;;;8.01;69.83
52745;BME280;38637;49.984;20.426;2024-02-15T04:16:40;99866.66;;;7.89;70.13
52745;BME280;38637;49.984;20.426;2024-02-15T04:19:06;99875.56;;;7.96;69.92
52745;BME280;38637;49.984;20.426;2024-02-15T04:21:31;99835.50;;;7.73;70.23
52745;BME280;38637;49.984;20.426;2024-02-15T04:23:56;99849.16;;;7.85;70.03
52745;BME280;38637;49.984;20.426;2024-02-15T04:26:22;99847.84;;;7.88;69.96
52745;BME280;38637;49.984;20.426;2024-02-15T04:28:52;99863.97;;;8.01;70.18
52745;BME280;38637;49.984;20.426;2024-02-15T04:31:18;99851.75;;;7.92;70.11
52745;BME280;38637;49.984;20.426;2024-02-15T04:33:43;99860.28;;;7.95;70.15
52745;BME280;38637;49.984;20.426;2024-02-15T04:36:08;99866.69;;;8.01;70.21
52745;BME280;38637;49.984;20.426;2024-02-15T04:38:34;99824.50;;;7.68;70.52
52745;BME280;38637;49.984;20.426;2024-02-15T04:41:00;99847.72;;;7.82;70.03
52745;BME280;38637;49.984;20.426;2024-02-15T04:43:26;99860.53;;;7.94;70.16
52745;BME280;38637;49.984;20.426;2024-02-15T04:45:51;99867.59;;;7.95;70.62
52745;BME280;38637;49.984;20.426;2024-02-15T04:48:17;99876.53;;;8.02;70.71
52745;BME280;38637;49.984;20.426;2024-02-15T04:50:44;99869.41;;;8.01;70.89
52745;BME280;38637;49.984;20.426;2024-02-15T04:53:10;99865.63;;;8.02;70.73
52745;BME280;38637;49.984;20.426;2024-02-15T04:55:36;99873.56;;;8.03;70.90
52745;BME280;38637;49.984;20.426;2024-02-15T04:58:01;99852.84;;;7.91;71.17
52745;BME280;38637;49.984;20.426;2024-02-15T05:00:27;99876.13;;;7.98;71.32
52745;BME280;38637;49.984;20.426;2024-02-15T05:02:53;99878.16;;;8.03;71.04
52745;BME280;38637;49.984;20.426;2024-02-15T05:05:19;99869.19;;;8.02;71.52
52745;BME280;38637;49.984;20.426;2024-02-15T05:07:45;99868.09;;;8.03;71.34
52745;BME280;38637;49.984;20.426;2024-02-15T05:10:10;99850.56;;;7.88;71.36
52745;BME280;38637;49.984;20.426;2024-02-15T05:12:37;99874.25;;;7.99;70.93
52745;BME280;38637;49.984;20.426;2024-02-15T05:15:04;99865.69;;;7.83;70.76
52745;BME280;38637;49.984;20.426;2024-02-15T05:17:37;99885.97;;;7.99;70.81
52745;BME280;38637;49.984;20.426;2024-02-15T05:20:02;99865.25;;;7.87;70.54
52745;BME280;38637;49.984;20.426;2024-02-15T05:22:35;99837.63;;;7.71;70.41
52745;BME280;38637;49.984;20.426;2024-02-15T05:25:01;99842.03;;;7.72;70.26
52745;BME280;38637;49.984;20.426;2024-02-15T05:27:27;99897.72;;;8.12;70.19
52745;BME280;38637;49.984;20.426;2024-02-15T05:29:52;99881.50;;;8.05;69.44
52745;BME280;38637;49.984;20.426;2024-02-15T05:32:17;99875.19;;;8.04;69.72
52745;BME280;38637;49.984;20.426;2024-02-15T05:34:45;99890.13;;;8.14;69.60
52745;BME280;38637;49.984;20.426;2024-02-15T05:37:10;99890.22;;;8.07;69.70
52745;BME280;38637;49.984;20.426;2024-02-15T05:39:35;99889.25;;;8.01;69.49
52745;BME280;38637;49.984;20.426;2024-02-15T05:42:01;99911.31;;;8.12;69.65
52745;BME280;38637;49.984;20.426;2024-02-15T05:44:26;99909.88;;;8.09;69.38
52745;BME280;38637;49.984;20.426;2024-02-15T05:46:51;99889.63;;;7.93;69.83
52745;BME280;38637;49.984;20.426;2024-02-15T05:49:17;99908.22;;;8.08;69.58
52745;BME280;38637;49.984;20.426;2024-02-15T05:51:43;99912.59;;;8.09;69.82
52745;BME280;38637;49.984;20.426;2024-02-15T05:54:09;99917.78;;;8.11;69.91
52745;BME280;38637;49.984;20.426;2024-02-15T05:56:35;99915.69;;;8.13;70.11
52745;BME280;38637;49.984;20.426;2024-02-15T05:59:00;99911.88;;;8.14;70.61
52745;BME280;38637;49.984;20.426;2024-02-15T06:01:27;99917.31;;;8.14;70.70
52745;BME280;38637;49.984;20.426;2024-02-15T06:03:54;99923.63;;;8.14;70.89
52745;BME280;38637;49.984;20.426;2024-02-15T06:06:21;99923.63;;;8.14;71.29
52745;BME280;38637;49.984;20.426;2024-02-15T06:08:46;99914.72;;;8.07;71.24
52745;BME280;38637;49.984;20.426;2024-02-15T06:11:12;99929.88;;;8.15;71.68
52745;BME280;38637;49.984;20.426;2024-02-15T06:13:39;99884.38;;;7.92;71.67
52745;BME280;38637;49.984;20.426;2024-02-15T06:16:05;99909.50;;;8.05;71.76
52745;BME280;38637;49.984;20.426;2024-02-15T06:18:34;99923.38;;;8.16;71.94
52745;BME280;38637;49.984;20.426;2024-02-15T06:20:59;99932.34;;;8.16;72.25
52745;BME280;38637;49.984;20.426;2024-02-15T06:23:26;99918.19;;;8.14;72.25
52745;BME280;38637;49.984;20.426;2024-02-15T06:25:53;99925.72;;;8.12;72.37
52745;BME280;38637;49.984;20.426;2024-02-15T06:28:20;99926.81;;;8.11;72.63
52745;BME280;38637;49.984;20.426;2024-02-15T06:31:06;99924.56;;;8.08;72.63
52745;BME280;38637;49.984;20.426;2024-02-15T06:33:50;99919.09;;;8.08;72.87
52745;BME280;38637;49.984;20.426;2024-02-15T06:36:39;99909.84;;;7.97;73.06
52745;BME280;38637;49.984;20.426;2024-02-15T06:39:23;99913.53;;;8.03;73.20
52745;BME280;38637;49.984;20.426;2024-02-15T06:42:04;99923.13;;;8.05;72.93
52745;BME280;38637;49.984;20.426;2024-02-15T06:44:29;99918.81;;;7.98;73.14
52745;BME280;38637;49.984;20.426;2024-02-15T06:46:54;99934.97;;;8.11;73.19
52745;BME280;38637;49.984;20.426;2024-02-15T06:49:21;99913.25;;;7.93;73.62
52745;BME280;38637;49.984;20.426;2024-02-15T06:51:49;99942.16;;;8.05;73.63
52745;BME280;38637;49.984;20.426;2024-02-15T06:54:14;99936.16;;;8.15;73.86
52745;BME280;38637;49.984;20.426;2024-02-15T06:56:39;99938.03;;;8.15;74.06
52745;BME280;38637;49.984;20.426;2024-02-15T06:59:06;99934.88;;;8.18;73.97
52745;BME280;38637;49.984;20.426;2024-02-15T07:01:32;99932.59;;;8.15;74.08
52745;BME280;38637;49.984;20.426;2024-02-15T07:03:59;99939.84;;;8.21;73.23
52745;BME280;38637;49.984;20.426;2024-02-15T07:06:24;99938.56;;;8.23;73.52
52745;BME280;38637;49.984;20.426;2024-02-15T07:08:49;99902.03;;;8.01;73.20
52745;BME280;38637;49.984;20.426;2024-02-15T07:11:16;99933.94;;;8.24;72.90
52745;BME280;38637;49.984;20.426;2024-02-15T07:13:41;99919.81;;;8.15;71.94
52745;BME280;38637;49.984;20.426;2024-02-15T07:16:08;99939.13;;;8.25;72.02
52745;BME280;38637;49.984;20.426;2024-02-15T07:18:33;99947.91;;;8.27;72.22
52745;BME280;38637;49.984;20.426;2024-02-15T07:20:58;99920.44;;;8.17;72.84
52745;BME280;38637;49.984;20.426;2024-02-15T07:23:26;99946.06;;;8.40;72.93
52745;BME280;38637;49.984;20.426;2024-02-15T07:25:51;99930.69;;;8.45;72.87
52745;BME280;38637;49.984;20.426;2024-02-15T07:28:19;99942.16;;;8.47;73.01
52745;BME280;38637;49.984;20.426;2024-02-15T07:30:45;99828.81;;;7.88;73.30
52745;BME280;38637;49.984;20.426;2024-02-15T07:33:14;99925.63;;;8.49;73.35
52745;BME280;38637;49.984;20.426;2024-02-15T07:35:43;99919.69;;;8.52;73.47
52745;BME280;38637;49.984;20.426;2024-02-15T07:38:08;99944.94;;;8.71;73.68
52745;BME280;38637;49.984;20.426;2024-02-15T07:40:35;99950.72;;;8.74;73.62
52745;BME280;38637;49.984;20.426;2024-02-15T07:43:00;99944.81;;;8.78;73.51
52745;BME280;38637;49.984;20.426;2024-02-15T07:45:25;99951.09;;;8.78;71.65
52745;BME280;38637;49.984;20.426;2024-02-15T07:47:51;99948.97;;;8.80;71.93
52745;BME280;38637;49.984;20.426;2024-02-15T07:50:17;99954.53;;;8.85;71.85
52745;BME280;38637;49.984;20.426;2024-02-15T07:52:47;99945.91;;;8.88;72.11
52745;BME280;38637;49.984;20.426;2024-02-15T07:55:13;99951.69;;;8.92;70.92
52745;BME280;38637;49.984;20.426;2024-02-15T07:57:38;99937.94;;;8.87;70.55
52745;BME280;38637;49.984;20.426;2024-02-15T08:00:04;99941.16;;;8.84;70.34
52745;BME280;38637;49.984;20.426;2024-02-15T08:02:35;99911.06;;;8.67;70.15
52745;BME280;38637;49.984;20.426;2024-02-15T08:05:00;99897.81;;;8.59;70.51
52745;BME280;38637;49.984;20.426;2024-02-15T08:07:29;99945.66;;;8.90;71.02
52745;BME280;38637;49.984;20.426;2024-02-15T08:09:58;99950.41;;;8.94;70.96
52745;BME280;38637;49.984;20.426;2024-02-15T08:12:23;99926.47;;;8.85;70.68
52745;BME280;38637;49.984;20.426;2024-02-15T08:14:49;99888.00;;;8.69;70.95
52745;BME280;38637;49.984;20.426;2024-02-15T08:17:14;99947.31;;;9.14;70.46
52745;BME280;38637;49.984;20.426;2024-02-15T08:19:40;99935.56;;;9.14;71.10
52745;BME280;38637;49.984;20.426;2024-02-15T08:22:06;99946.59;;;9.31;71.39
52745;BME280;38637;49.984;20.426;2024-02-15T08:24:32;99931.06;;;9.19;71.35
52745;BME280;38637;49.984;20.426;2024-02-15T08:26:58;99930.13;;;9.26;71.43
52745;BME280;38637;49.984;20.426;2024-02-15T08:29:24;99930.59;;;9.34;71.22
52745;BME280;38637;49.984;20.426;2024-02-15T08:31:50;99950.34;;;9.53;71.21
52745;BME280;38637;49.984;20.426;2024-02-15T08:34:15;99938.34;;;9.54;70.86
52745;BME280;38637;49.984;20.426;2024-02-15T08:36:43;99952.22;;;9.64;70.16
52745;BME280;38637;49.984;20.426;2024-02-15T08:39:08;99937.97;;;9.62;70.05
52745;BME280;38637;49.984;20.426;2024-02-15T08:41:36;99953.50;;;9.74;69.89
52745;BME280;38637;49.984;20.426;2024-02-15T08:44:02;99908.84;;;9.51;69.33
52745;BME280;38637;49.984;20.426;2024-02-15T08:46:31;99955.31;;;9.85;69.25
52745;BME280;38637;49.984;20.426;2024-02-15T08:48:56;99948.34;;;9.89;68.68
52745;BME280;38637;49.984;20.426;2024-02-15T08:51:21;99952.38;;;9.86;68.67
52745;BME280;38637;49.984;20.426;2024-02-15T08:53:47;99965.59;;;9.95;68.54
52745;BME280;38637;49.984;20.426;2024-02-15T08:56:13;99843.13;;;9.36;68.62
52745;BME280;38637;49.984;20.426;2024-02-15T08:58:38;99924.13;;;9.93;68.32
52745;BME280;38637;49.984;20.426;2024-02-15T09:01:05;99944.34;;;10.08;68.33
52745;BME280;38637;49.984;20.426;2024-02-15T09:03:32;99919.94;;;10.02;68.11
52745;BME280;38637;49.984;20.426;2024-02-15T09:05:57;99949.00;;;10.25;67.86
52745;BME280;38637;49.984;20.426;2024-02-15T09:08:24;99953.41;;;10.26;67.45
52745;BME280;38637;49.984;20.426;2024-02-15T09:10:49;99834.78;;;9.42;67.66
52745;BME280;38637;49.984;20.426;2024-02-15T09:13:15;99960.66;;;10.20;67.77
52745;BME280;38637;49.984;20.426;2024-02-15T09:15:40;99925.72;;;10.05;68.09
52745;BME280;38637;49.984;20.426;2024-02-15T09:18:07;99937.13;;;10.02;67.99
52745;BME280;38637;49.984;20.426;2024-02-15T09:20:35;99864.38;;;9.62;68.36
52745;BME280;38637;49.984;20.426;2024-02-15T09:23:02;99959.78;;;10.31;68.33
52745;BME280;38637;49.984;20.426;2024-02-15T09:25:34;99939.97;;;10.24;68.13
52745;BME280;38637;49.984;20.426;2024-02-15T09:27:59;99947.81;;;10.32;68.33
52745;BME280;38637;49.984;20.426;2024-02-15T09:30:24;99951.19;;;10.40;68.19
52745;BME280;38637;49.984;20.426;2024-02-15T09:32:52;99926.59;;;10.23;68.58
52745;BME280;38637;49.984;20.426;2024-02-15T09:35:18;99922.91;;;10.29;68.49
52745;BME280;38637;49.984;20.426;2024-02-15T09:37:46;99956.75;;;10.62;68.72
52745;BME280;38637;49.984;20.426;2024-02-15T09:40:14;99948.34;;;10.63;68.95
52745;BME280;38637;49.984;20.426;2024-02-15T09:42:41;99954.22;;;10.72;68.41
52745;BME280;38637;49.984;20.426;2024-02-15T09:45:07;99959.00;;;10.81;68.42
52745;BME280;38637;49.984;20.426;2024-02-15T09:47:37;99950.56;;;10.83;68.42
52745;BME280;38637;49.984;20.426;2024-02-15T09:50:06;99948.19;;;10.87;68.15
52745;BME280;38637;49.984;20.426;2024-02-15T09:52:32;99950.41;;;10.90;68.08
52745;BME280;38637;49.984;20.426;2024-02-15T09:55:02;99913.97;;;10.67;67.83
52745;BME280;38637;49.984;20.426;2024-02-15T09:57:28;99931.09;;;10.79;68.01
52745;BME280;38637;49.984;20.426;2024-02-15T09:59:54;99953.88;;;11.02;68.23
52745;BME280;38637;49.984;20.426;2024-02-15T10:02:19;99899.91;;;10.75;67.82
52745;BME280;38637;49.984;20.426;2024-02-15T10:04:46;99934.75;;;11.02;67.67
52745;BME280;38637;49.984;20.426;2024-02-15T10:07:13;99944.22;;;11.16;67.56
52745;BME280;38637;49.984;20.426;2024-02-15T10:09:39;99946.47;;;11.19;67.83
52745;BME280;38637;49.984;20.426;2024-02-15T10:12:08;99951.69;;;11.21;68.57
52745;BME280;38637;49.984;20.426;2024-02-15T10:14:34;99947.88;;;11.22;68.51
52745;BME280;38637;49.984;20.426;2024-02-15T10:17:06;99892.53;;;10.93;68.33
52745;BME280;38637;49.984;20.426;2024-02-15T10:19:35;99942.81;;;11.31;68.75
52745;BME280;38637;49.984;20.426;2024-02-15T10:22:06;99927.22;;;11.31;68.41
52745;BME280;38637;49.984;20.426;2024-02-15T10:24:32;99882.38;;;11.10;68.79
52745;BME280;38637;49.984;20.426;2024-02-15T10:27:01;99881.44;;;11.21;68.00
52745;BME280;38637;49.984;20.426;2024-02-15T10:29:29;99930.03;;;11.58;68.01
52745;BME280;38637;49.984;20.426;2024-02-15T10:31:57;99934.50;;;11.64;68.18
52745;BME280;38637;49.984;20.426;2024-02-15T10:34:24;99926.78;;;11.61;67.65
52745;BME280;38637;49.984;20.426;2024-02-15T10:36:55;99926.66;;;11.73;68.03
52745;BME280;38637;49.984;20.426;2024-02-15T10:39:35;99904.19;;;11.71;67.99
52745;BME280;38637;49.984;20.426;2024-02-15T10:42:00;99921.44;;;11.93;68.20
52745;BME280;38637;49.984;20.426;2024-02-15T10:44:25;99914.41;;;12.03;67.17
52745;BME280;38637;49.984;20.426;2024-02-15T10:46:53;99923.56;;;12.13;67.24
52745;BME280;38637;49.984;20.426;2024-02-15T10:49:23;99910.47;;;12.15;67.04
52745;BME280;38637;49.984;20.426;2024-02-15T10:51:55;99917.44;;;12.28;66.06
52745;BME280;38637;49.984;20.426;2024-02-15T10:54:40;99914.19;;;12.36;64.07
52745;BME280;38637;49.984;20.426;2024-02-15T10:57:06;99877.34;;;12.17;62.47
52745;BME280;38637;49.984;20.426;2024-02-15T10:59:35;99873.84;;;12.22;62.64
52745;BME280;38637;49.984;20.426;2024-02-15T11:02:23;99903.56;;;12.40;62.31
52745;BME280;38637;49.984;20.426;2024-02-15T11:04:53;99864.75;;;12.16;62.68
52745;BME280;38637;49.984;20.426;2024-02-15T11:07:25;99917.00;;;12.41;62.70
52745;BME280;38637;49.984;20.426;2024-02-15T11:09:54;99909.88;;;12.40;62.08
52745;BME280;38637;49.984;20.426;2024-02-15T11:12:21;99906.03;;;12.41;61.90
52745;BME280;38637;49.984;20.426;2024-02-15T11:14:48;99904.69;;;12.44;61.70
52745;BME280;38637;49.984;20.426;2024-02-15T11:20:02;99882.94;;;12.64;61.85
52745;BME280;38637;49.984;20.426;2024-02-15T11:22:33;99870.66;;;12.72;61.69
52745;BME280;38637;49.984;20.426;2024-02-15T11:25:02;99876.03;;;12.99;60.46
52745;BME280;38637;49.984;20.426;2024-02-15T11:27:33;99878.09;;;13.19;60.00
52745;BME280;38637;49.984;20.426;2024-02-15T11:30:02;99869.22;;;13.54;59.90
52745;BME280;38637;49.984;20.426;2024-02-15T11:32:49;99878.16;;;14.18;59.70
52745;BME280;38637;49.984;20.426;2024-02-15T11:35:16;99881.75;;;14.69;58.55
52745;BME280;38637;49.984;20.426;2024-02-15T11:40:15;99855.44;;;15.44;54.88
52745;BME280;38637;49.984;20.426;2024-02-15T11:42:42;99882.75;;;15.95;54.27
52745;BME280;38637;49.984;20.426;2024-02-15T11:45:08;99873.16;;;16.26;52.65
52745;BME280;38637;49.984;20.426;2024-02-15T11:47:37;99857.56;;;16.46;52.00
52745;BME280;38637;49.984;20.426;2024-02-15T11:50:02;99840.63;;;16.58;49.59
52745;BME280;38637;49.984;20.426;2024-02-15T11:52:28;99870.00;;;17.02;50.32
52745;BME280;38637;49.984;20.426;2024-02-15T11:54:53;99850.13;;;16.81;47.61
52745;BME280;38637;49.984;20.426;2024-02-15T11:57:19;99860.22;;;16.90;48.17
52745;BME280;38637;49.984;20.426;2024-02-15T12:00:01;99868.34;;;17.06;48.21
52745;BME280;38637;49.984;20.426;2024-02-15T12:02:45;99832.97;;;17.08;47.54
52745;BME280;38637;49.984;20.426;2024-02-15T12:05:29;99838.56;;;17.27;47.89
52745;BME280;38637;49.984;20.426;2024-02-15T12:08:13;99834.97;;;17.26;47.13
52745;BME280;38637;49.984;20.426;2024-02-15T12:10:58;99836.34;;;17.48;47.25
52745;BME280;38637;49.984;20.426;2024-02-15T12:13:42;99859.59;;;17.65;47.57
52745;BME280;38637;49.984;20.426;2024-02-15T12:16:26;99824.44;;;17.71;44.99
52745;BME280;38637;49.984;20.426;2024-02-15T12:19:10;99837.69;;;17.93;45.86
52745;BME280;38637;49.984;20.426;2024-02-15T12:21:37;99853.59;;;18.20;45.31
52745;BME280;38637;49.984;20.426;2024-02-15T12:24:07;99861.69;;;18.49;45.01
52745;BME280;38637;49.984;20.426;2024-02-15T12:26:32;99854.00;;;18.79;43.55
52745;BME280;38637;49.984;20.426;2024-02-15T12:29:00;99858.97;;;19.10;43.80
52745;BME280;38637;49.984;20.426;2024-02-15T12:31:26;99832.41;;;19.36;43.55
52745;BME280;38637;49.984;20.426;2024-02-15T12:34:02;99848.59;;;19.84;42.37
52745;BME280;38637;49.984;20.426;2024-02-15T12:36:34;99848.31;;;20.08;42.00
52745;BME280;38637;49.984;20.426;2024-02-15T12:39:03;99850.13;;;20.13;40.73
52745;BME280;38637;49.984;20.426;2024-02-15T12:41:36;99851.09;;;20.08;41.31
52745;BME280;38637;49.984;20.426;2024-02-15T12:44:01;99848.06;;;19.96;41.97
52745;BME280;38637;49.984;20.426;2024-02-15T12:46:27;99829.94;;;19.98;41.91
52745;BME280;38637;49.984;20.426;2024-02-15T12:49:06;99844.97;;;20.20;41.61
52745;BME280;38637;49.984;20.426;2024-02-15T12:51:32;99847.00;;;20.06;41.24
52745;BME280;38637;49.984;20.426;2024-02-15T12:54:08;99841.97;;;20.30;40.92
52745;BME280;38637;49.984;20.426;2024-02-15T12:56:34;99824.44;;;20.43;40.10
52745;BME280;38637;49.984;20.426;2024-02-15T12:59:01;99843.19;;;20.60;38.66
52745;BME280;38637;49.984;20.426;2024-02-15T13:01:26;99834.75;;;20.74;39.35
52745;BME280;38637;49.984;20.426;2024-02-15T13:03:54;99835.84;;;20.96;39.39
52745;BME280;38637;49.984;20.426;2024-02-15T13:06:19;99832.56;;;21.25;39.30